createdAt,value
2018-08-03T00:00:18.120Z,21.30
2018-08-03T00:02:45.701Z,21.30
2018-08-03T00:05:13.362Z,21.20
2018-08-03T00:07:40.866Z,21.10
2018-08-03T00:10:08.620Z,21.20
2018-08-03T00:12:36.482Z,21.20
2018-08-03T00:15:05.120Z,21.20
2018-08-03T00:17:32.604Z,21.20
2018-08-03T00:20:00.102Z,21.20
2018-08-03T00:22:27.625Z,21.10
2018-08-03T00:24:55.157Z,21.10
2018-08-03T00:27:22.617Z,20.90
2018-08-03T00:29:50.087Z,20.90
2018-08-03T00:32:17.631Z,20.80
2018-08-03T00:34:45.227Z,20.80
2018-08-03T00:37:12.789Z,20.80
2018-08-03T00:39:40.369Z,20.80
2018-08-03T00:42:07.845Z,20.80
2018-08-03T00:44:35.264Z,20.80
2018-08-03T00:47:02.792Z,20.80
2018-08-03T00:49:30.279Z,20.80
2018-08-03T00:51:57.787Z,20.70
2018-08-03T00:54:25.272Z,20.70
2018-08-03T00:56:52.747Z,20.70
2018-08-03T00:59:20.254Z,20.60
2018-08-03T01:01:47.765Z,20.50
2018-08-03T01:04:15.269Z,20.50
2018-08-03T01:06:42.829Z,20.50
2018-08-03T01:09:11.711Z,20.50
2018-08-03T01:11:39.164Z,20.50
2018-08-03T01:14:07.207Z,20.50
2018-08-03T01:16:39.274Z,20.50
2018-08-03T01:19:06.980Z,20.50
2018-08-03T01:21:34.617Z,20.40
2018-08-03T01:24:02.453Z,20.40
2018-08-03T01:26:29.980Z,20.40
2018-08-03T01:28:57.508Z,20.20
2018-08-03T01:31:25.031Z,20.10
2018-08-03T01:33:52.760Z,20.10
2018-08-03T01:36:20.222Z,20.20
2018-08-03T01:38:47.688Z,20.10
2018-08-03T01:41:15.151Z,20.20
2018-08-03T01:43:42.684Z,20.10
2018-08-03T01:46:10.181Z,20.10
2018-08-03T01:48:37.623Z,20.00
2018-08-03T01:51:05.047Z,20.00
2018-08-03T01:53:32.507Z,20.00
2018-08-03T01:56:00.069Z,20.00
2018-08-03T01:58:27.569Z,19.90
2018-08-03T02:00:58.068Z,20.00
2018-08-03T02:03:25.576Z,19.90
2018-08-03T02:05:53.059Z,19.90
2018-08-03T02:08:20.592Z,19.90
2018-08-03T02:10:48.071Z,19.90
2018-08-03T02:13:15.568Z,19.80
2018-08-03T02:15:43.000Z,19.90
2018-08-03T02:18:10.513Z,19.80
2018-08-03T02:20:37.950Z,19.70
2018-08-03T02:23:05.502Z,19.70
2018-08-03T02:25:32.987Z,19.70
2018-08-03T02:28:00.466Z,19.60
2018-08-03T02:30:27.953Z,19.70
2018-08-03T02:32:55.545Z,19.70
2018-08-03T02:35:23.096Z,19.70
2018-08-03T02:37:50.632Z,19.60
2018-08-03T02:40:18.067Z,19.60
2018-08-03T02:42:45.550Z,19.60
2018-08-03T02:45:13.113Z,19.60
2018-08-03T02:47:40.611Z,19.50
2018-08-03T02:50:08.028Z,19.40
2018-08-03T02:52:35.483Z,19.50
2018-08-03T02:55:02.991Z,19.50
2018-08-03T02:57:30.659Z,19.40
2018-08-03T02:59:58.161Z,19.40
2018-08-03T03:02:25.647Z,19.40
2018-08-03T03:04:53.108Z,19.40
2018-08-03T03:07:20.707Z,19.30
2018-08-03T03:09:48.123Z,19.20
2018-08-03T03:12:15.643Z,19.20
2018-08-03T03:14:43.164Z,19.10
2018-08-03T03:17:10.700Z,19.10
2018-08-03T03:19:38.254Z,19.10
2018-08-03T03:22:05.833Z,19.10
2018-08-03T03:24:33.419Z,19.10
2018-08-03T03:27:00.942Z,19.10
2018-08-03T03:29:28.423Z,19.10
2018-08-03T03:31:56.012Z,19.00
2018-08-03T03:34:23.443Z,19.00
2018-08-03T03:36:50.933Z,19.10
2018-08-03T03:39:18.400Z,19.00
2018-08-03T03:41:45.932Z,19.00
2018-08-03T03:44:13.384Z,19.00
2018-08-03T03:46:40.871Z,19.00
2018-08-03T03:49:08.361Z,19.00
2018-08-03T03:51:35.842Z,19.10
2018-08-03T03:54:03.373Z,19.00
2018-08-03T03:56:30.836Z,19.00
2018-08-03T03:58:58.405Z,18.90
2018-08-03T04:01:25.964Z,18.90
2018-08-03T04:03:54.402Z,19.00
2018-08-03T04:06:22.073Z,18.90
2018-08-03T04:08:49.603Z,19.00
2018-08-03T04:11:17.098Z,19.00
2018-08-03T04:13:44.543Z,19.00
2018-08-03T04:16:12.437Z,19.00
2018-08-03T04:18:39.923Z,19.00
2018-08-03T04:21:07.388Z,19.00
2018-08-03T04:23:34.860Z,19.00
2018-08-03T04:26:02.291Z,19.10
2018-08-03T04:28:29.742Z,19.10
2018-08-03T04:30:57.427Z,19.20
2018-08-03T04:33:24.884Z,19.10
2018-08-03T04:35:52.335Z,19.20
2018-08-03T04:38:19.749Z,19.20
2018-08-03T04:40:47.273Z,19.20
2018-08-03T04:43:14.842Z,19.30
2018-08-03T04:45:42.320Z,19.30
2018-08-03T04:48:09.847Z,19.40
2018-08-03T04:50:37.259Z,19.40
2018-08-03T04:53:04.714Z,19.40
2018-08-03T04:55:32.195Z,19.50
2018-08-03T04:57:59.638Z,19.40
2018-08-03T05:00:27.389Z,19.50
2018-08-03T05:02:54.915Z,19.50
2018-08-03T05:05:22.391Z,19.50
2018-08-03T05:07:50.207Z,19.50
2018-08-03T05:10:17.736Z,19.60
2018-08-03T05:12:45.240Z,19.60
2018-08-03T05:15:12.840Z,19.60
2018-08-03T05:17:40.346Z,19.70
2018-08-03T05:20:08.127Z,19.80
2018-08-03T05:22:35.656Z,19.80
2018-08-03T05:25:03.465Z,19.80
2018-08-03T05:27:31.243Z,19.80
2018-08-03T05:29:58.988Z,19.80
2018-08-03T05:32:26.612Z,19.90
2018-08-03T05:34:54.130Z,20.10
2018-08-03T05:37:23.983Z,20.20
2018-08-03T05:39:51.738Z,20.30
2018-08-03T05:42:19.421Z,20.50
2018-08-03T05:44:46.898Z,20.70
2018-08-03T05:47:14.504Z,20.70
2018-08-03T05:49:42.076Z,20.80
2018-08-03T05:52:09.671Z,21.00
2018-08-03T05:54:39.678Z,21.10
2018-08-03T05:57:07.135Z,21.20
2018-08-03T05:59:34.577Z,21.40
2018-08-03T06:02:02.405Z,21.60
2018-08-03T06:04:29.988Z,22.00
2018-08-03T06:06:57.651Z,22.30
2018-08-03T06:09:25.245Z,22.50
2018-08-03T06:11:52.774Z,22.60
2018-08-03T06:14:20.279Z,22.80
2018-08-03T06:16:47.780Z,22.80
2018-08-03T06:19:15.403Z,23.00
2018-08-03T06:21:43.114Z,23.10
2018-08-03T06:24:10.581Z,23.30
2018-08-03T06:26:38.064Z,23.30
2018-08-03T06:29:06.096Z,23.30
2018-08-03T06:31:33.618Z,23.40
2018-08-03T06:34:01.060Z,23.60
2018-08-03T06:36:28.802Z,23.70
2018-08-03T06:38:56.716Z,23.90
2018-08-03T06:41:24.209Z,24.00
2018-08-03T06:43:51.958Z,24.20
2018-08-03T06:46:19.647Z,24.50
2018-08-03T06:48:47.200Z,24.60
2018-08-03T06:51:14.955Z,24.60
2018-08-03T06:53:42.528Z,24.70
2018-08-03T06:56:10.107Z,24.90
2018-08-03T06:58:37.849Z,25.10
2018-08-03T07:01:05.427Z,25.10
2018-08-03T07:03:33.027Z,25.20
2018-08-03T07:06:00.707Z,25.20
2018-08-03T07:08:28.636Z,25.20
2018-08-03T07:10:57.027Z,25.30
2018-08-03T07:13:25.007Z,25.40
2018-08-03T07:16:10.163Z,25.50
2018-08-03T07:21:41.005Z,25.60
2018-08-03T07:24:08.577Z,25.90
2018-08-03T07:26:36.056Z,26.10
2018-08-03T07:29:03.647Z,26.30
2018-08-03T07:31:31.158Z,26.50
2018-08-03T07:33:58.716Z,26.70
2018-08-03T07:36:26.234Z,26.60
2018-08-03T07:38:53.728Z,26.80
2018-08-03T07:41:21.338Z,27.00
2018-08-03T07:43:48.813Z,27.00
2018-08-03T07:46:16.340Z,27.20
2018-08-03T07:48:43.908Z,27.30
2018-08-03T07:51:11.481Z,27.30
2018-08-03T07:53:38.911Z,27.30
2018-08-03T07:56:06.595Z,27.40
2018-08-03T07:58:34.062Z,27.40
2018-08-03T08:01:01.690Z,27.50
2018-08-03T08:03:29.536Z,27.70
2018-08-03T08:05:57.232Z,27.80
2018-08-03T08:08:25.044Z,27.90
2018-08-03T08:10:52.622Z,27.80
2018-08-03T08:13:20.493Z,27.80
2018-08-03T08:15:48.015Z,27.60
2018-08-03T08:18:15.635Z,27.80
2018-08-03T08:20:43.177Z,28.20
2018-08-03T08:23:10.836Z,28.10
2018-08-03T08:25:38.381Z,28.20
2018-08-03T08:28:05.886Z,28.40
2018-08-03T08:30:33.445Z,28.50
2018-08-03T08:33:00.976Z,28.60
2018-08-03T08:35:28.438Z,28.70
2018-08-03T08:37:56.400Z,28.80
2018-08-03T08:40:24.775Z,28.70
2018-08-03T08:42:52.340Z,28.90
2018-08-03T08:45:20.008Z,29.00
2018-08-03T08:47:47.530Z,29.00
2018-08-03T08:50:15.252Z,29.10
2018-08-03T08:52:43.162Z,29.00
2018-08-03T08:55:10.915Z,29.10
2018-08-03T08:57:38.535Z,29.20
2018-08-03T09:00:06.016Z,29.30
2018-08-03T09:02:33.729Z,29.30
2018-08-03T09:05:01.511Z,29.40
2018-08-03T09:07:30.807Z,29.40
2018-08-03T09:09:59.031Z,29.50
2018-08-03T09:12:26.987Z,29.80
2018-08-03T09:14:54.996Z,30.00
2018-08-03T09:19:51.056Z,30.00
2018-08-03T09:22:18.764Z,30.10
2018-08-03T09:24:46.593Z,30.20
2018-08-03T09:27:15.096Z,30.30
2018-08-03T09:29:43.302Z,30.30
2018-08-03T09:32:11.336Z,30.50
2018-08-03T09:34:39.348Z,30.40
2018-08-03T09:37:07.436Z,30.70
2018-08-03T09:39:35.303Z,30.70
2018-08-03T09:44:31.060Z,30.60
2018-08-03T09:46:59.070Z,30.50
2018-08-03T09:51:55.567Z,30.60
2018-08-03T09:54:23.587Z,30.70
2018-08-03T09:56:51.453Z,30.80
2018-08-03T09:59:19.196Z,31.00
2018-08-03T10:01:47.126Z,31.10
2018-08-03T10:04:14.855Z,31.10
2018-08-03T10:06:42.607Z,30.90
2018-08-03T10:09:10.328Z,30.90
2018-08-03T10:14:05.816Z,31.10
2018-08-03T10:16:33.570Z,31.30
2018-08-03T10:19:01.287Z,31.40
2018-08-03T10:23:57.143Z,31.60
2018-08-03T10:26:25.034Z,31.80
2018-08-03T10:28:53.543Z,31.90
2018-08-03T10:31:21.539Z,31.90
2018-08-03T10:38:45.212Z,31.70
2018-08-03T10:41:13.229Z,31.90
2018-08-03T10:43:41.076Z,31.90
2018-08-03T10:48:36.754Z,32.30
2018-08-03T10:51:04.543Z,32.50
2018-08-03T10:53:32.271Z,32.60
2018-08-03T10:56:00.106Z,32.60
2018-08-03T10:58:27.921Z,32.60
2018-08-03T11:00:56.009Z,32.60
2018-08-03T11:03:24.688Z,32.80
2018-08-03T11:05:52.738Z,32.60
2018-08-03T11:08:22.094Z,32.40
2018-08-03T11:10:50.209Z,32.20
2018-08-03T11:13:18.252Z,32.20
2018-08-03T11:15:46.430Z,32.40
2018-08-03T11:18:14.238Z,32.40
2018-08-03T11:20:42.476Z,32.50
2018-08-03T11:23:12.923Z,32.50
2018-08-03T11:25:40.892Z,32.30
2018-08-03T11:28:10.262Z,32.30
2018-08-03T11:30:38.490Z,32.60
2018-08-03T11:33:06.940Z,32.70
2018-08-03T11:38:02.999Z,32.70
2018-08-03T11:40:31.413Z,32.30
2018-08-03T11:42:59.504Z,32.30
2018-08-03T11:47:55.386Z,32.40
2018-08-03T11:50:23.390Z,32.40
2018-08-03T11:52:51.496Z,32.40
2018-08-03T11:55:19.906Z,32.70
2018-08-03T11:57:47.638Z,32.70
2018-08-03T12:00:15.720Z,32.70
2018-08-03T12:02:43.621Z,32.70
2018-08-03T12:05:11.525Z,32.60
2018-08-03T12:07:39.779Z,32.40
2018-08-03T12:10:07.716Z,32.30
2018-08-03T12:12:35.910Z,32.20
2018-08-03T12:15:03.907Z,32.00
2018-08-03T12:17:31.831Z,32.20
2018-08-03T12:20:00.782Z,32.40
2018-08-03T12:22:28.778Z,32.60
2018-08-03T12:24:56.833Z,32.60
2018-08-03T12:27:24.928Z,32.60
2018-08-03T12:29:53.030Z,32.40
2018-08-03T12:32:20.768Z,32.50
2018-08-03T12:34:48.404Z,32.50
2018-08-03T12:37:15.865Z,32.60
2018-08-03T12:39:43.418Z,32.60
2018-08-03T12:42:10.881Z,32.40
2018-08-03T12:44:38.341Z,32.40
2018-08-03T12:47:06.002Z,32.40
2018-08-03T12:49:33.786Z,32.40
2018-08-03T12:52:02.573Z,32.40
2018-08-03T12:56:58.039Z,32.40
2018-08-03T12:59:25.664Z,32.10
2018-08-03T13:01:53.265Z,32.00
2018-08-03T13:04:21.041Z,32.20
2018-08-03T13:06:49.734Z,32.20
2018-08-03T13:09:17.429Z,32.40
2018-08-03T13:11:45.006Z,32.30
2018-08-03T13:14:12.671Z,32.00
2018-08-03T13:21:38.164Z,32.00
2018-08-03T13:24:06.329Z,32.10
2018-08-03T13:26:34.002Z,32.20
2018-08-03T13:29:01.652Z,32.00
2018-08-03T13:31:29.872Z,32.10
2018-08-03T13:33:57.487Z,32.20
2018-08-03T13:36:26.316Z,32.20
2018-08-03T13:38:53.854Z,32.00
2018-08-03T13:41:21.415Z,32.00
2018-08-03T13:43:49.105Z,32.20
2018-08-03T13:46:17.250Z,32.20
2018-08-03T13:48:46.070Z,32.30
2018-08-03T13:51:14.883Z,32.20
2018-08-03T13:53:42.921Z,31.90
2018-08-03T13:56:11.590Z,31.80
2018-08-03T13:58:45.466Z,31.70
2018-08-03T14:01:31.439Z,31.70
2018-08-03T14:03:59.212Z,31.70
2018-08-03T14:06:41.829Z,31.70
2018-08-03T14:09:10.579Z,31.60
2018-08-03T14:11:38.861Z,31.70
2018-08-03T14:14:06.932Z,31.80
2018-08-03T14:16:36.606Z,31.70
2018-08-03T14:19:07.724Z,31.60
2018-08-03T14:21:35.281Z,31.70
2018-08-03T14:24:03.373Z,31.70
2018-08-03T14:26:31.298Z,31.60
2018-08-03T14:28:59.013Z,31.50
2018-08-03T14:31:26.532Z,31.60
2018-08-03T14:33:54.494Z,31.60
2018-08-03T14:36:22.711Z,31.70
2018-08-03T14:38:50.599Z,31.70
2018-08-03T14:41:21.130Z,31.70
2018-08-03T14:43:48.805Z,31.70
2018-08-03T14:46:16.309Z,31.70
2018-08-03T14:48:45.097Z,31.70
2018-08-03T14:51:12.605Z,31.50
2018-08-03T14:53:40.168Z,31.60
2018-08-03T14:56:08.314Z,31.60
2018-08-03T14:58:36.159Z,31.40
2018-08-03T15:01:04.013Z,31.40
2018-08-03T15:03:32.553Z,31.40
2018-08-03T15:06:01.782Z,31.50
2018-08-03T15:08:30.625Z,31.20
2018-08-03T15:10:58.380Z,31.30
2018-08-03T15:13:26.076Z,31.20
2018-08-03T15:15:53.843Z,31.10
2018-08-03T15:18:21.621Z,31.10
2018-08-03T15:20:51.360Z,31.10
2018-08-03T15:23:22.568Z,31.10
2018-08-03T15:25:52.116Z,31.10
2018-08-03T15:28:20.728Z,31.00
2018-08-03T15:30:48.446Z,30.90
2018-08-03T15:33:16.292Z,30.80
2018-08-03T15:35:50.394Z,30.70
2018-08-03T15:38:19.110Z,30.70
2018-08-03T15:40:53.864Z,30.70
2018-08-03T15:43:24.583Z,30.70
2018-08-03T15:45:52.491Z,30.50
2018-08-03T15:48:20.186Z,30.30
2018-08-03T15:50:48.358Z,30.40
2018-08-03T15:53:16.823Z,30.40
2018-08-03T15:55:44.620Z,30.10
2018-08-03T15:58:12.388Z,29.90
2018-08-03T16:00:40.218Z,29.80
2018-08-03T16:03:08.060Z,29.80
2018-08-03T16:05:36.143Z,29.80
2018-08-03T16:08:04.361Z,29.90
2018-08-03T16:10:32.472Z,29.80
2018-08-03T16:13:00.432Z,29.90
2018-08-03T16:15:28.227Z,29.80
2018-08-03T16:17:58.509Z,29.70
2018-08-03T16:20:30.032Z,29.70
2018-08-03T16:23:09.398Z,29.70
2018-08-03T16:25:38.412Z,29.80
2018-08-03T16:28:06.812Z,29.90
2018-08-03T16:30:43.762Z,29.80
2018-08-03T16:33:12.883Z,29.80
2018-08-03T16:35:40.623Z,29.60
2018-08-03T16:38:08.742Z,29.60
2018-08-03T16:40:45.705Z,29.50
2018-08-03T16:46:06.944Z,29.50
2018-08-03T16:48:35.280Z,29.30
2018-08-03T16:51:29.321Z,29.40
2018-08-03T16:53:57.957Z,29.20
2018-08-03T16:56:25.597Z,29.20
2018-08-03T16:58:53.374Z,29.30
2018-08-03T17:01:21.146Z,29.20
2018-08-03T17:03:49.068Z,29.20
2018-08-03T17:06:16.746Z,29.20
2018-08-03T17:08:44.403Z,29.10
2018-08-03T17:11:12.025Z,29.10
2018-08-03T17:13:39.768Z,28.90
2018-08-03T17:16:08.195Z,28.90
2018-08-03T17:18:38.850Z,28.90
2018-08-03T17:21:06.990Z,28.90
2018-08-03T17:23:41.582Z,28.80
2018-08-03T17:26:21.405Z,28.80
2018-08-03T17:28:51.973Z,28.80
2018-08-03T17:31:30.711Z,28.60
2018-08-03T17:33:58.956Z,28.60
2018-08-03T17:36:26.688Z,28.50
2018-08-03T17:38:54.587Z,28.50
2018-08-03T17:41:22.480Z,28.40
2018-08-03T17:43:50.458Z,28.30
2018-08-03T17:46:18.035Z,28.30
2018-08-03T17:48:45.571Z,28.40
2018-08-03T17:51:25.393Z,28.30
2018-08-03T17:53:52.952Z,28.20
2018-08-03T17:56:20.547Z,28.10
2018-08-03T17:58:48.291Z,28.00
2018-08-03T18:01:16.057Z,28.00
2018-08-03T18:03:43.717Z,28.10
2018-08-03T18:06:11.424Z,28.00
2018-08-03T18:08:39.339Z,28.00
2018-08-03T18:11:07.260Z,27.90
2018-08-03T18:16:02.489Z,27.70
2018-08-03T18:18:30.590Z,27.60
2018-08-03T18:20:58.442Z,27.60
2018-08-03T18:23:26.264Z,27.60
2018-08-03T18:25:54.506Z,27.40
2018-08-03T18:28:22.249Z,27.40
2018-08-03T18:30:49.984Z,27.30
2018-08-03T18:33:17.848Z,27.20
2018-08-03T18:35:45.929Z,27.20
2018-08-03T18:40:41.111Z,27.00
2018-08-03T18:43:08.835Z,27.00
2018-08-03T18:45:36.553Z,26.80
2018-08-03T18:48:04.204Z,26.80
2018-08-03T18:50:31.712Z,26.80
2018-08-03T18:52:59.368Z,26.60
2018-08-03T18:55:26.903Z,26.30
2018-08-03T18:57:54.503Z,26.20
2018-08-03T19:00:22.263Z,25.90
2018-08-03T19:02:49.770Z,25.70
2018-08-03T19:05:17.327Z,25.80
2018-08-03T19:07:44.847Z,25.70
2018-08-03T19:13:22.825Z,25.60
2018-08-03T19:15:50.502Z,25.50
2018-08-03T19:18:18.261Z,25.50
2018-08-03T19:20:45.919Z,25.40
2018-08-03T19:23:13.629Z,25.20
2018-08-03T19:25:41.199Z,25.00
2018-08-03T19:28:09.130Z,24.90
2018-08-03T19:30:36.750Z,24.90
2018-08-03T19:33:04.839Z,24.70
2018-08-03T19:35:33.074Z,24.70
2018-08-03T19:38:00.874Z,24.60
2018-08-03T19:40:29.610Z,24.50
2018-08-03T19:42:57.199Z,24.40
2018-08-03T19:48:36.566Z,24.40
2018-08-03T19:51:04.285Z,24.30
2018-08-03T19:53:31.963Z,24.20
2018-08-03T19:56:00.398Z,24.20
2018-08-03T19:58:29.103Z,24.10
2018-08-03T20:00:57.205Z,24.10
2018-08-03T20:03:25.244Z,24.00
2018-08-03T20:05:53.643Z,24.00
2018-08-03T20:08:21.515Z,23.90
2018-08-03T20:10:49.354Z,23.80
2018-08-03T20:13:17.342Z,23.80
2018-08-03T20:15:45.342Z,23.70
2018-08-03T20:18:13.292Z,23.70
2018-08-03T20:20:41.000Z,23.70
2018-08-03T20:23:08.995Z,23.60
2018-08-03T20:25:36.971Z,23.40
2018-08-03T20:28:22.480Z,23.40
2018-08-03T20:30:49.989Z,23.50
2018-08-03T20:33:17.507Z,23.40
2018-08-03T20:35:45.096Z,23.30
2018-08-03T20:38:12.686Z,23.30
2018-08-03T20:40:41.204Z,23.30
2018-08-03T20:43:09.007Z,23.20
2018-08-03T20:45:36.600Z,23.20
2018-08-03T20:48:04.266Z,23.10
2018-08-03T20:50:31.980Z,23.00
2018-08-03T20:52:59.777Z,23.10
2018-08-03T20:55:27.344Z,23.00
2018-08-03T20:57:54.709Z,23.00
2018-08-03T21:00:22.253Z,22.90
2018-08-03T21:02:50.196Z,22.90
2018-08-03T21:05:18.001Z,22.80
2018-08-03T21:07:45.728Z,22.80
2018-08-03T21:10:13.236Z,22.70
2018-08-03T21:12:41.386Z,22.70
2018-08-03T21:15:24.525Z,22.60
2018-08-03T21:17:52.077Z,22.60
2018-08-03T21:20:19.628Z,22.50
2018-08-03T21:22:47.465Z,22.50
2018-08-03T21:25:15.413Z,22.40
2018-08-03T21:27:43.352Z,22.30
2018-08-03T21:30:17.071Z,22.20
2018-08-03T21:32:44.839Z,22.20
2018-08-03T21:35:12.705Z,22.20
2018-08-03T21:37:40.502Z,22.10
2018-08-03T21:40:08.231Z,22.10
2018-08-03T21:42:36.238Z,22.10
2018-08-03T21:45:05.034Z,21.90
2018-08-03T21:47:33.459Z,21.90
2018-08-03T21:50:01.652Z,21.80
2018-08-03T21:52:29.633Z,21.80
2018-08-03T21:54:58.561Z,21.80
2018-08-03T21:57:26.830Z,21.80
2018-08-03T21:59:55.358Z,21.80
2018-08-03T22:02:24.766Z,21.60
2018-08-03T22:04:54.493Z,21.70
2018-08-03T22:07:22.488Z,21.60
2018-08-03T22:12:18.164Z,21.60
2018-08-03T22:14:46.400Z,21.60
2018-08-03T22:17:14.337Z,21.50
2018-08-03T22:19:47.403Z,21.50
2018-08-03T22:22:15.067Z,21.50
2018-08-03T22:24:43.028Z,21.50
2018-08-03T22:27:10.822Z,21.30
2018-08-03T22:29:38.336Z,21.30
2018-08-03T22:32:26.774Z,21.30
2018-08-03T22:34:54.641Z,21.30
2018-08-03T22:37:22.569Z,21.30
2018-08-03T22:39:50.552Z,21.20
2018-08-03T22:42:18.338Z,21.20
2018-08-03T22:44:45.938Z,21.10
2018-08-03T22:50:06.689Z,21.20
2018-08-03T22:52:35.396Z,21.00
2018-08-03T22:55:03.167Z,20.90
2018-08-03T22:57:30.822Z,20.80
2018-08-03T22:59:58.588Z,20.80
2018-08-03T23:02:26.409Z,20.70
2018-08-03T23:04:54.221Z,20.80
2018-08-03T23:07:21.909Z,20.80
2018-08-03T23:09:49.591Z,20.90
2018-08-03T23:12:17.692Z,20.80
2018-08-03T23:14:45.404Z,20.80
2018-08-03T23:17:13.183Z,20.70
2018-08-03T23:19:41.275Z,20.70
2018-08-03T23:22:09.005Z,20.60
2018-08-03T23:24:36.718Z,20.50
2018-08-03T23:27:04.625Z,20.50
2018-08-03T23:29:32.304Z,20.60
2018-08-03T23:31:59.942Z,20.60
2018-08-03T23:34:28.143Z,20.50
2018-08-03T23:36:56.065Z,20.50
2018-08-03T23:39:23.859Z,20.40
2018-08-03T23:41:51.555Z,20.40
2018-08-03T23:44:19.263Z,20.30
2018-08-03T23:46:46.970Z,20.30
2018-08-03T23:49:14.700Z,20.30
2018-08-03T23:51:42.636Z,20.30
2018-08-03T23:54:10.397Z,20.20
2018-08-03T23:56:38.011Z,20.20
2018-08-03T23:59:05.944Z,20.10
